createdAt,value
2019-02-20T00:00:26.890Z,31.50
2019-02-20T00:02:55.474Z,44.27
2019-02-20T00:05:24.047Z,41.42
2019-02-20T00:07:52.631Z,32.53
2019-02-20T00:10:21.203Z,38.02
2019-02-20T00:12:49.792Z,34.98
2019-02-20T00:15:18.374Z,34.65
2019-02-20T00:17:46.948Z,41.35
2019-02-20T00:20:15.510Z,39.20
2019-02-20T00:22:44.106Z,37.03
2019-02-20T00:25:12.677Z,38.42
2019-02-20T00:27:41.289Z,41.40
2019-02-20T00:30:10.679Z,37.38
2019-02-20T00:32:39.254Z,36.08
2019-02-20T00:35:07.827Z,38.50
2019-02-20T00:37:36.411Z,42.67
2019-02-20T00:40:09.770Z,39.55
2019-02-20T00:42:38.381Z,41.18
2019-02-20T00:45:16.951Z,40.30
2019-02-20T00:47:49.744Z,46.53
2019-02-20T00:50:19.383Z,41.60
2019-02-20T00:52:50.272Z,44.18
2019-02-20T00:55:19.175Z,35.90
2019-02-20T00:57:47.771Z,40.60
2019-02-20T01:00:16.788Z,44.38
2019-02-20T01:02:45.384Z,46.70
2019-02-20T01:05:13.960Z,40.63
2019-02-20T01:07:42.553Z,45.67
2019-02-20T01:10:11.119Z,46.65
2019-02-20T01:12:39.711Z,38.50
2019-02-20T01:15:10.615Z,42.67
2019-02-20T01:17:39.302Z,40.67
2019-02-20T01:20:09.680Z,40.50
2019-02-20T01:22:38.279Z,48.00
2019-02-20T01:25:07.282Z,51.65
2019-02-20T01:27:35.900Z,49.70
2019-02-20T01:30:07.371Z,42.58
2019-02-20T01:32:35.976Z,42.55
2019-02-20T01:35:04.994Z,45.80
2019-02-20T01:37:33.590Z,59.35
2019-02-20T01:40:02.166Z,46.63
2019-02-20T01:42:30.767Z,47.98
2019-02-20T01:44:59.336Z,41.85
2019-02-20T01:47:27.925Z,47.98
2019-02-20T01:49:56.499Z,48.65
2019-02-20T01:52:25.091Z,50.23
2019-02-20T01:54:53.659Z,54.38
2019-02-20T01:57:22.251Z,50.63
2019-02-20T01:59:50.820Z,52.50
2019-02-20T02:02:19.415Z,50.75
2019-02-20T02:04:48.063Z,52.73
2019-02-20T02:07:16.654Z,54.83
2019-02-20T02:09:45.214Z,56.90
2019-02-20T02:12:13.813Z,57.48
2019-02-20T02:14:42.380Z,58.98
2019-02-20T02:17:10.976Z,49.13
2019-02-20T02:19:39.542Z,44.35
2019-02-20T02:22:08.114Z,47.35
2019-02-20T02:24:36.707Z,46.15
2019-02-20T02:27:05.270Z,46.90
2019-02-20T02:29:33.875Z,49.08
2019-02-20T02:32:02.458Z,46.02
2019-02-20T02:34:31.036Z,50.15
2019-02-20T02:36:59.611Z,51.53
2019-02-20T02:39:28.205Z,48.65
2019-02-20T02:41:56.770Z,63.98
2019-02-20T02:44:25.376Z,51.13
2019-02-20T02:46:53.937Z,63.65
2019-02-20T02:49:22.531Z,55.58
2019-02-20T02:51:51.095Z,50.38
2019-02-20T02:54:19.687Z,50.78
2019-02-20T02:56:48.256Z,48.87
2019-02-20T02:59:16.850Z,48.70
2019-02-20T03:01:45.420Z,59.25
2019-02-20T03:04:14.015Z,53.92
2019-02-20T03:06:42.588Z,57.30
2019-02-20T03:09:11.175Z,60.25
2019-02-20T03:11:39.748Z,47.95
2019-02-20T03:14:08.345Z,55.90
2019-02-20T03:16:36.915Z,47.78
2019-02-20T03:19:05.508Z,53.45
2019-02-20T03:21:34.080Z,47.60
2019-02-20T03:24:02.672Z,56.88
2019-02-20T03:26:31.249Z,56.95
2019-02-20T03:28:59.842Z,51.95
2019-02-20T03:31:28.426Z,54.63
2019-02-20T03:33:57.012Z,51.73
2019-02-20T03:36:25.571Z,54.63
2019-02-20T03:38:54.164Z,52.13
2019-02-20T03:41:22.768Z,51.98
2019-02-20T03:43:51.318Z,53.35
2019-02-20T03:46:19.904Z,56.85
2019-02-20T03:48:48.489Z,48.68
2019-02-20T03:51:17.053Z,40.98
2019-02-20T03:53:51.566Z,60.83
2019-02-20T03:56:16.299Z,44.40
2019-02-20T03:58:44.897Z,54.45
2019-02-20T04:01:13.458Z,58.98
2019-02-20T04:03:42.055Z,48.55
2019-02-20T04:06:10.618Z,51.70
2019-02-20T04:08:39.220Z,50.20
2019-02-20T04:11:07.779Z,45.70
2019-02-20T04:13:36.378Z,44.15
2019-02-20T04:16:04.955Z,40.43
2019-02-20T04:18:33.563Z,43.17
2019-02-20T04:21:02.119Z,50.45
2019-02-20T04:23:30.707Z,51.08
2019-02-20T04:25:59.287Z,50.00
2019-02-20T04:28:27.868Z,46.70
2019-02-20T04:30:56.439Z,42.17
2019-02-20T04:33:25.031Z,43.55
2019-02-20T04:35:53.608Z,45.45
2019-02-20T04:38:22.193Z,46.85
2019-02-20T04:40:50.758Z,50.00
2019-02-20T04:43:19.343Z,42.30
2019-02-20T04:45:47.915Z,49.40
2019-02-20T04:48:16.472Z,50.55
2019-02-20T04:50:45.059Z,47.53
2019-02-20T04:53:13.631Z,54.50
2019-02-20T04:55:42.225Z,54.27
2019-02-20T04:58:18.454Z,65.50
2019-02-20T05:00:47.047Z,56.18
2019-02-20T05:03:15.631Z,69.32
2019-02-20T05:05:44.215Z,57.20
2019-02-20T05:08:12.785Z,59.73
2019-02-20T05:10:41.370Z,57.73
2019-02-20T05:13:09.927Z,57.85
2019-02-20T05:15:38.502Z,54.18
2019-02-20T05:18:07.071Z,59.33
2019-02-20T05:20:35.661Z,53.83
2019-02-20T05:23:04.223Z,56.48
2019-02-20T05:25:32.816Z,59.63
2019-02-20T05:28:01.382Z,46.13
2019-02-20T05:30:29.977Z,50.85
2019-02-20T05:32:58.547Z,48.92
2019-02-20T05:35:27.126Z,50.73
2019-02-20T05:37:55.690Z,48.28
2019-02-20T05:40:24.291Z,41.02
2019-02-20T05:42:52.851Z,38.50
2019-02-20T05:45:21.443Z,48.48
2019-02-20T05:47:50.017Z,66.33
2019-02-20T05:50:18.621Z,48.85
2019-02-20T05:52:47.170Z,59.93
2019-02-20T05:55:15.764Z,48.17
2019-02-20T05:57:44.324Z,56.30
2019-02-20T06:00:14.015Z,51.35
2019-02-20T06:02:42.612Z,68.05
2019-02-20T06:05:11.175Z,55.65
2019-02-20T06:07:39.745Z,58.80
2019-02-20T06:10:09.366Z,63.15
2019-02-20T06:12:37.937Z,56.35
2019-02-20T06:15:09.067Z,64.72
2019-02-20T06:17:37.631Z,58.10
2019-02-20T06:20:08.550Z,49.40
2019-02-20T06:22:37.124Z,54.03
2019-02-20T06:25:06.067Z,52.90
2019-02-20T06:27:34.623Z,47.27
2019-02-20T06:30:04.453Z,54.90
2019-02-20T06:32:33.018Z,49.73
2019-02-20T06:35:01.603Z,52.73
2019-02-20T06:37:30.170Z,45.88
2019-02-20T06:39:58.759Z,56.50
2019-02-20T06:42:27.328Z,64.65
2019-02-20T06:44:55.911Z,56.80
2019-02-20T06:47:24.474Z,51.70
2019-02-20T06:49:53.063Z,57.10
2019-02-20T06:52:21.633Z,51.80
2019-02-20T06:54:53.923Z,54.75
2019-02-20T06:57:20.434Z,46.60
2019-02-20T06:59:49.030Z,60.23
2019-02-20T07:02:17.666Z,54.55
2019-02-20T07:05:22.942Z,48.25
2019-02-20T07:07:57.254Z,47.62
2019-02-20T07:10:49.995Z,44.38
2019-02-20T07:13:20.391Z,46.55
2019-02-20T07:15:54.571Z,48.73
2019-02-20T07:18:29.303Z,54.63
2019-02-20T07:21:09.923Z,45.45
2019-02-20T07:23:41.576Z,52.58
2019-02-20T07:26:46.572Z,45.08
2019-02-20T07:29:36.190Z,53.48
2019-02-20T07:32:04.759Z,50.75
2019-02-20T07:34:33.331Z,52.93
2019-02-20T07:37:01.915Z,52.27
2019-02-20T07:39:30.487Z,48.95
2019-02-20T07:41:59.071Z,45.25
2019-02-20T07:44:27.634Z,45.83
2019-02-20T07:46:56.223Z,49.25
2019-02-20T07:49:24.786Z,48.95
2019-02-20T07:51:53.372Z,46.48
2019-02-20T07:54:21.943Z,55.43
2019-02-20T07:56:50.527Z,48.85
2019-02-20T07:59:19.095Z,48.13
2019-02-20T08:01:47.678Z,46.23
2019-02-20T08:04:16.252Z,51.98
2019-02-20T08:06:44.831Z,63.70
2019-02-20T08:09:13.399Z,58.78
2019-02-20T08:11:41.982Z,53.02
2019-02-20T08:14:10.547Z,42.83
2019-02-20T08:16:39.140Z,55.45
2019-02-20T08:19:07.703Z,44.23
2019-02-20T08:21:36.291Z,41.53
2019-02-20T08:24:04.922Z,37.73
2019-02-20T08:26:33.511Z,38.10
2019-02-20T08:29:02.092Z,43.02
2019-02-20T08:31:30.670Z,35.60
2019-02-20T08:33:59.245Z,40.00
2019-02-20T08:36:27.818Z,32.17
2019-02-20T08:38:56.382Z,38.00
2019-02-20T08:41:24.975Z,37.28
2019-02-20T08:43:53.549Z,45.20
2019-02-20T08:46:22.130Z,32.20
2019-02-20T08:48:50.703Z,41.90
2019-02-20T08:51:19.306Z,36.73
2019-02-20T08:53:47.874Z,45.08
2019-02-20T08:56:16.462Z,37.20
2019-02-20T08:58:45.027Z,30.82
2019-02-20T09:01:13.620Z,42.93
2019-02-20T09:03:42.187Z,29.92
2019-02-20T09:06:10.786Z,36.28
2019-02-20T09:08:39.347Z,38.33
2019-02-20T09:11:07.931Z,32.00
2019-02-20T09:13:36.499Z,29.80
2019-02-20T09:16:05.083Z,36.30
2019-02-20T09:18:33.701Z,48.23
2019-02-20T09:21:02.243Z,42.48
2019-02-20T09:23:30.819Z,32.23
2019-02-20T09:25:59.406Z,34.40
2019-02-20T09:28:27.968Z,37.85
2019-02-20T09:30:56.561Z,34.05
2019-02-20T09:33:25.127Z,39.20
2019-02-20T09:35:53.717Z,34.55
2019-02-20T09:38:22.278Z,30.80
2019-02-20T09:40:50.870Z,27.00
2019-02-20T09:43:19.439Z,29.65
2019-02-20T09:45:48.023Z,37.80
2019-02-20T09:48:16.592Z,38.48
2019-02-20T09:50:45.179Z,34.20
2019-02-20T09:53:13.743Z,28.77
2019-02-20T09:55:50.906Z,46.95
2019-02-20T09:58:12.550Z,30.60
2019-02-20T10:00:41.126Z,33.85
2019-02-20T10:03:09.713Z,31.65
2019-02-20T10:05:38.309Z,35.65
2019-02-20T10:08:06.866Z,40.23
2019-02-20T10:10:35.431Z,36.33
2019-02-20T10:13:04.019Z,27.85
2019-02-20T10:15:32.583Z,29.15
2019-02-20T10:18:01.178Z,31.65
2019-02-20T10:20:29.739Z,32.95
2019-02-20T10:22:58.327Z,39.73
2019-02-20T10:25:26.900Z,35.65
2019-02-20T10:27:55.497Z,31.68
2019-02-20T10:30:24.068Z,32.90
2019-02-20T10:32:52.654Z,29.70
2019-02-20T10:35:21.216Z,34.08
2019-02-20T10:37:49.807Z,33.30
2019-02-20T10:40:18.370Z,32.73
2019-02-20T10:42:46.958Z,27.95
2019-02-20T10:45:15.526Z,29.75
2019-02-20T10:47:44.111Z,33.08
2019-02-20T10:50:13.824Z,30.43
2019-02-20T10:52:42.479Z,39.75
2019-02-20T10:55:11.321Z,32.90
2019-02-20T10:57:39.902Z,28.10
2019-02-20T11:00:24.258Z,41.80
2019-02-20T11:02:51.651Z,30.80
2019-02-20T11:05:20.283Z,31.48
2019-02-20T11:07:48.867Z,44.88
2019-02-20T11:10:17.430Z,35.03
2019-02-20T11:12:46.018Z,35.00
2019-02-20T11:15:14.659Z,31.93
2019-02-20T11:17:43.239Z,30.35
2019-02-20T11:20:13.676Z,36.58
2019-02-20T11:22:42.481Z,34.83
2019-02-20T11:25:12.566Z,35.55
2019-02-20T11:27:41.218Z,32.40
2019-02-20T11:30:15.931Z,34.55
2019-02-20T11:32:44.528Z,33.30
2019-02-20T11:35:13.095Z,45.67
2019-02-20T11:37:41.678Z,33.67
2019-02-20T11:40:10.916Z,38.30
2019-02-20T11:42:39.480Z,29.18
2019-02-20T11:45:12.835Z,39.50
2019-02-20T11:47:41.434Z,36.35
2019-02-20T11:50:10.987Z,26.45
2019-02-20T11:52:40.092Z,30.23
2019-02-20T11:55:13.609Z,31.10
2019-02-20T11:57:42.195Z,29.05
2019-02-20T12:00:13.836Z,28.77
2019-02-20T12:02:42.423Z,26.00
2019-02-20T12:05:11.128Z,25.50
2019-02-20T12:07:39.717Z,24.67
2019-02-20T12:10:14.433Z,26.45
2019-02-20T12:12:43.014Z,28.87
2019-02-20T12:15:11.648Z,22.85
2019-02-20T12:17:40.230Z,27.15
2019-02-20T12:20:09.442Z,29.50
2019-02-20T12:22:43.462Z,23.75
2019-02-20T12:25:13.239Z,32.28
2019-02-20T12:27:45.122Z,24.92
2019-02-20T12:30:13.826Z,27.52
2019-02-20T12:32:42.563Z,20.82
2019-02-20T12:35:11.266Z,29.27
2019-02-20T12:37:39.857Z,23.45
2019-02-20T12:40:11.567Z,29.87
2019-02-20T12:42:41.913Z,24.45
2019-02-20T12:45:10.435Z,25.25
2019-02-20T12:47:39.018Z,29.42
2019-02-20T12:50:09.934Z,24.02
2019-02-20T12:52:38.515Z,26.48
2019-02-20T12:55:08.018Z,30.85
2019-02-20T12:57:36.611Z,22.42
2019-02-20T13:00:10.913Z,31.17
2019-02-20T13:02:39.926Z,20.77
2019-02-20T13:05:09.308Z,32.93
2019-02-20T13:07:37.996Z,46.95
2019-02-20T13:10:08.195Z,19.05
2019-02-20T13:12:36.779Z,25.08
2019-02-20T13:15:07.951Z,39.30
2019-02-20T13:17:36.547Z,141.70
2019-02-20T13:20:06.751Z,33.75
2019-02-20T13:22:35.559Z,44.23
2019-02-20T13:25:05.059Z,17.20
2019-02-20T13:27:33.654Z,83.05
2019-02-20T13:30:02.224Z,76.28
2019-02-20T13:32:33.288Z,21.90
2019-02-20T13:35:01.947Z,56.28
2019-02-20T13:37:30.536Z,22.98
2019-02-20T13:39:59.100Z,17.62
2019-02-20T13:42:27.756Z,24.57
2019-02-20T13:44:56.321Z,19.57
2019-02-20T13:47:24.878Z,26.15
2019-02-20T13:49:53.531Z,22.02
2019-02-20T13:52:22.094Z,20.75
2019-02-20T13:54:50.685Z,67.22
2019-02-20T13:57:19.556Z,24.07
2019-02-20T13:59:49.711Z,33.25
2019-02-20T14:02:18.325Z,27.62
2019-02-20T14:04:46.907Z,17.20
2019-02-20T14:07:15.470Z,20.43
2019-02-20T14:09:44.059Z,18.45
2019-02-20T14:12:12.623Z,19.65
2019-02-20T14:14:41.211Z,16.05
2019-02-20T14:17:09.782Z,21.12
2019-02-20T14:19:38.370Z,20.70
2019-02-20T14:22:07.856Z,17.23
2019-02-20T14:24:36.524Z,20.35
2019-02-20T14:27:10.855Z,20.92
2019-02-20T14:29:35.318Z,18.17
2019-02-20T14:32:03.953Z,18.05
2019-02-20T14:34:32.539Z,31.87
2019-02-20T14:37:02.851Z,19.07
2019-02-20T14:39:31.340Z,15.88
2019-02-20T14:42:01.016Z,15.70
2019-02-20T14:44:29.686Z,15.80
2019-02-20T14:46:58.254Z,18.23
2019-02-20T14:49:26.835Z,25.15
2019-02-20T14:51:55.398Z,17.02
2019-02-20T14:54:23.991Z,21.48
2019-02-20T14:56:52.554Z,14.63
2019-02-20T14:59:21.140Z,19.40
2019-02-20T15:01:50.110Z,36.70
2019-02-20T15:04:18.698Z,18.73
2019-02-20T15:06:47.259Z,19.15
2019-02-20T15:09:15.842Z,16.62
2019-02-20T15:11:44.407Z,27.85
2019-02-20T15:14:12.993Z,26.55
2019-02-20T15:16:41.556Z,14.55
2019-02-20T15:19:10.338Z,15.40
2019-02-20T15:21:38.907Z,27.27
2019-02-20T15:24:07.488Z,16.70
2019-02-20T15:26:36.052Z,22.05
2019-02-20T15:29:04.707Z,26.15
2019-02-20T15:31:34.059Z,17.25
2019-02-20T15:34:02.864Z,11.48
2019-02-20T15:36:31.428Z,14.40
2019-02-20T15:39:00.011Z,18.70
2019-02-20T15:41:28.579Z,15.70
2019-02-20T15:43:58.007Z,18.12
2019-02-20T15:46:26.567Z,26.02
2019-02-20T15:48:55.150Z,19.70
2019-02-20T15:51:24.122Z,34.67
2019-02-20T15:53:52.711Z,26.33
2019-02-20T15:56:21.281Z,22.80
2019-02-20T15:58:49.867Z,16.77
2019-02-20T16:01:18.436Z,24.07
2019-02-20T16:03:47.019Z,25.17
2019-02-20T16:06:15.587Z,30.97
2019-02-20T16:08:44.476Z,24.92
2019-02-20T16:11:13.045Z,28.40
2019-02-20T16:13:41.623Z,38.15
2019-02-20T16:16:10.186Z,17.15
2019-02-20T16:18:38.747Z,25.60
2019-02-20T16:21:07.331Z,21.75
2019-02-20T16:23:35.899Z,29.25
2019-02-20T16:26:04.547Z,21.23
2019-02-20T16:28:34.038Z,23.07
2019-02-20T16:31:02.790Z,22.50
2019-02-20T16:33:31.363Z,21.80
2019-02-20T16:35:59.946Z,20.92
2019-02-20T16:38:28.511Z,17.52
2019-02-20T16:40:57.395Z,19.98
2019-02-20T16:43:25.959Z,19.48
2019-02-20T16:45:54.626Z,28.62
2019-02-20T16:48:23.187Z,25.30
2019-02-20T16:50:51.771Z,23.52
2019-02-20T16:53:20.377Z,26.70
2019-02-20T16:55:48.940Z,39.08
2019-02-20T16:58:17.880Z,29.90
2019-02-20T17:00:46.467Z,51.50
2019-02-20T17:03:15.039Z,37.75
2019-02-20T17:05:43.623Z,32.80
2019-02-20T17:08:12.196Z,31.20
2019-02-20T17:10:40.795Z,40.20
2019-02-20T17:13:09.350Z,29.00
2019-02-20T17:15:37.935Z,32.08
2019-02-20T17:18:06.503Z,31.82
2019-02-20T17:20:35.098Z,25.37
2019-02-20T17:23:03.662Z,24.77
2019-02-20T17:25:32.255Z,28.70
2019-02-20T17:28:05.667Z,29.77
2019-02-20T17:30:31.063Z,40.05
2019-02-20T17:32:59.628Z,23.90
2019-02-20T17:35:28.221Z,30.52
2019-02-20T17:37:56.785Z,23.42
2019-02-20T17:40:25.438Z,23.38
2019-02-20T17:42:54.015Z,26.65
2019-02-20T17:45:22.594Z,24.77
2019-02-20T17:47:51.159Z,25.27
2019-02-20T17:50:27.524Z,26.90
2019-02-20T17:52:56.094Z,29.07
2019-02-20T17:55:24.687Z,26.02
2019-02-20T17:57:53.249Z,30.43
2019-02-20T18:00:23.774Z,25.65
2019-02-20T18:02:52.335Z,34.63
2019-02-20T18:05:20.927Z,32.75
2019-02-20T18:07:51.840Z,29.30
2019-02-20T18:10:19.732Z,34.38
2019-02-20T18:12:48.295Z,32.93
2019-02-20T18:15:16.879Z,38.95
2019-02-20T18:17:45.444Z,28.55
2019-02-20T18:20:14.101Z,27.02
2019-02-20T18:22:43.789Z,40.50
2019-02-20T18:25:12.947Z,22.73
2019-02-20T18:27:41.511Z,29.42
2019-02-20T18:30:12.435Z,35.13
2019-02-20T18:32:40.998Z,35.17
2019-02-20T18:35:11.423Z,35.03
2019-02-20T18:37:39.994Z,37.70
2019-02-20T18:40:16.449Z,26.90
2019-02-20T18:42:45.003Z,30.97
2019-02-20T18:45:15.051Z,33.42
2019-02-20T18:47:43.607Z,37.83
2019-02-20T18:50:14.315Z,28.02
2019-02-20T18:52:42.858Z,26.30
2019-02-20T18:55:12.992Z,28.15
2019-02-20T18:57:41.550Z,31.48
2019-02-20T19:00:22.786Z,34.30
2019-02-20T19:02:51.339Z,37.38
2019-02-20T19:05:20.081Z,27.95
2019-02-20T19:07:48.624Z,30.00
2019-02-20T19:10:26.424Z,25.27
2019-02-20T19:13:10.259Z,34.15
2019-02-20T19:15:56.678Z,36.98
2019-02-20T19:19:02.469Z,37.25
2019-02-20T19:21:34.863Z,29.70
2019-02-20T19:24:21.382Z,32.40
2019-02-20T19:26:55.465Z,37.55
2019-02-20T19:29:43.798Z,39.33
2019-02-20T19:32:38.291Z,30.43
2019-02-20T19:35:37.116Z,34.13
2019-02-20T19:38:40.383Z,33.35
2019-02-20T19:41:17.563Z,26.55
2019-02-20T19:43:49.233Z,30.00
2019-02-20T19:46:37.263Z,27.62
2019-02-20T19:49:25.858Z,32.28
2019-02-20T19:52:00.247Z,35.58
2019-02-20T19:54:31.914Z,36.28
2019-02-20T19:57:21.461Z,33.85
2019-02-20T19:59:53.108Z,26.35
2019-02-20T20:02:42.733Z,39.38
2019-02-20T20:05:35.619Z,49.27
2019-02-20T20:08:26.509Z,41.70
2019-02-20T20:11:18.883Z,30.65
2019-02-20T20:13:56.423Z,29.30
2019-02-20T20:16:36.955Z,42.88
2019-02-20T20:19:28.039Z,30.70
2019-02-20T20:22:30.867Z,29.18
2019-02-20T20:25:19.244Z,32.05
2019-02-20T20:28:05.737Z,32.58
2019-02-20T20:30:43.048Z,31.12
2019-02-20T20:33:49.421Z,34.63
2019-02-20T20:36:37.808Z,42.83
2019-02-20T20:39:30.129Z,36.33
2019-02-20T20:42:36.957Z,33.80
2019-02-20T20:45:29.155Z,26.90
2019-02-20T20:48:12.014Z,36.68
2019-02-20T20:51:13.043Z,33.38
2019-02-20T20:53:56.139Z,31.95
2019-02-20T20:56:29.978Z,36.65
2019-02-20T20:59:01.685Z,36.38
2019-02-20T21:01:36.676Z,32.25
2019-02-20T21:04:29.781Z,34.98
2019-02-20T21:07:01.618Z,40.70
2019-02-20T21:09:33.351Z,41.13
2019-02-20T21:12:05.024Z,27.70
2019-02-20T21:14:48.794Z,40.33
2019-02-20T21:17:26.407Z,37.08
2019-02-20T21:19:58.055Z,34.73
2019-02-20T21:22:35.206Z,38.25
2019-02-20T21:25:35.587Z,41.23
2019-02-20T21:28:24.896Z,44.48
2019-02-20T21:31:01.751Z,40.58
2019-02-20T21:33:42.487Z,43.10
2019-02-20T21:36:25.983Z,38.95
2019-02-20T21:39:04.406Z,34.33
2019-02-20T21:41:36.070Z,40.83
2019-02-20T21:44:16.460Z,36.17
2019-02-20T21:46:50.803Z,49.40
2019-02-20T21:49:38.871Z,42.40
2019-02-20T21:52:28.347Z,38.50
2019-02-20T21:55:05.187Z,44.83
2019-02-20T21:58:02.616Z,47.35
2019-02-20T22:01:07.505Z,46.90
2019-02-20T22:04:06.354Z,49.95
2019-02-20T22:06:50.100Z,46.65
2019-02-20T22:09:30.501Z,39.90
2019-02-20T22:12:11.055Z,69.03
2019-02-20T22:14:48.469Z,42.43
2019-02-20T22:17:20.136Z,40.78
2019-02-20T22:20:26.742Z,41.75
2019-02-20T22:23:07.575Z,42.70
2019-02-20T22:25:51.442Z,39.58
2019-02-20T22:28:51.955Z,33.58
2019-02-20T22:31:39.800Z,35.60
2019-02-20T22:34:17.319Z,38.65
2019-02-20T22:37:10.031Z,38.50
2019-02-20T22:39:50.987Z,38.35
2019-02-20T22:42:36.791Z,33.58
2019-02-20T22:45:30.591Z,40.85
2019-02-20T22:48:30.338Z,37.85
2019-02-20T22:51:21.356Z,42.17
2019-02-20T22:54:04.772Z,39.53
2019-02-20T22:56:57.886Z,40.25
2019-02-20T22:59:32.047Z,45.63
2019-02-20T23:02:03.708Z,32.95
2019-02-20T23:04:38.238Z,37.13
2019-02-20T23:07:15.376Z,34.83
2019-02-20T23:09:55.967Z,48.78
2019-02-20T23:12:45.723Z,41.48
2019-02-20T23:15:14.290Z,31.82
2019-02-20T23:17:42.870Z,37.13
2019-02-20T23:20:11.444Z,31.35
2019-02-20T23:22:40.036Z,50.65
2019-02-20T23:25:08.605Z,37.70
2019-02-20T23:27:37.191Z,28.12
2019-02-20T23:30:13.009Z,40.20
2019-02-20T23:32:39.398Z,34.98
2019-02-20T23:35:09.312Z,42.27
2019-02-20T23:37:37.899Z,34.30
2019-02-20T23:40:09.303Z,32.23
2019-02-20T23:42:37.887Z,36.88
2019-02-20T23:45:08.390Z,36.40
2019-02-20T23:47:36.983Z,30.52
2019-02-20T23:50:07.506Z,35.75
2019-02-20T23:52:36.091Z,28.65
2019-02-20T23:55:06.098Z,36.68
2019-02-20T23:57:34.682Z,34.10
